createdAt,value
2019-01-06T00:01:51.840Z,5.73
2019-01-06T00:07:05.102Z,5.03
2019-01-06T00:09:35.753Z,10.20
2019-01-06T00:12:06.822Z,9.90
2019-01-06T00:14:41.059Z,7.47
2019-01-06T00:17:09.103Z,8.13
2019-01-06T00:19:43.155Z,7.00
2019-01-06T00:22:17.216Z,7.33
2019-01-06T00:25:01.645Z,6.97
2019-01-06T00:27:46.039Z,8.27
2019-01-06T00:30:22.866Z,9.63
2019-01-06T00:32:51.153Z,10.13
2019-01-06T00:35:22.011Z,12.17
2019-01-06T00:38:06.743Z,16.40
2019-01-06T00:40:46.647Z,10.50
2019-01-06T00:43:17.290Z,16.33
2019-01-06T00:45:45.363Z,19.70
2019-01-06T00:48:25.626Z,21.17
2019-01-06T00:50:59.321Z,22.73
2019-01-06T00:53:43.901Z,19.10
2019-01-06T00:56:28.280Z,20.30
2019-01-06T00:59:11.288Z,19.27
2019-01-06T01:01:57.207Z,19.83
2019-01-06T01:04:41.773Z,20.73
2019-01-06T01:07:25.249Z,22.57
2019-01-06T01:10:02.114Z,21.60
2019-01-06T01:12:32.828Z,20.57
2019-01-06T01:15:07.188Z,24.03
2019-01-06T01:17:40.802Z,20.70
2019-01-06T01:20:20.613Z,23.20
2019-01-06T01:23:00.648Z,24.27
2019-01-06T01:25:40.488Z,26.10
2019-01-06T01:28:11.127Z,25.40
2019-01-06T01:30:44.877Z,28.73
2019-01-06T01:33:12.926Z,27.20
2019-01-06T01:35:40.990Z,29.87
2019-01-06T01:38:23.901Z,28.50
2019-01-06T01:41:08.460Z,21.90
2019-01-06T01:43:52.926Z,22.00
2019-01-06T01:46:39.982Z,21.80
2019-01-06T01:49:13.771Z,24.50
2019-01-06T01:51:53.570Z,25.60
2019-01-06T01:54:24.454Z,24.47
2019-01-06T01:56:55.028Z,22.13
2019-01-06T01:59:25.904Z,21.03
2019-01-06T02:01:53.994Z,20.93
2019-01-06T02:04:38.646Z,19.73
2019-01-06T02:07:06.747Z,19.67
2019-01-06T02:09:37.352Z,19.27
2019-01-06T02:12:05.408Z,18.23
2019-01-06T02:14:49.808Z,19.67
2019-01-06T02:17:34.343Z,19.90
2019-01-06T02:20:14.275Z,20.83
2019-01-06T02:22:42.333Z,15.63
2019-01-06T02:25:12.935Z,20.60
2019-01-06T02:27:57.301Z,19.53
2019-01-06T02:30:30.897Z,18.53
2019-01-06T02:33:04.657Z,18.70
2019-01-06T02:35:44.778Z,20.13
2019-01-06T02:38:12.884Z,19.73
2019-01-06T02:40:40.922Z,20.97
2019-01-06T02:43:17.817Z,20.70
2019-01-06T02:45:54.807Z,21.13
2019-01-06T02:48:28.763Z,25.00
2019-01-06T02:51:05.462Z,20.53
2019-01-06T02:53:33.564Z,18.23
2019-01-06T02:56:18.172Z,21.03
2019-01-06T02:58:48.765Z,19.20
2019-01-06T03:01:33.169Z,15.73
2019-01-06T03:04:19.151Z,11.67
2019-01-06T03:06:53.186Z,15.73
2019-01-06T03:09:37.651Z,17.57
2019-01-06T03:15:26.276Z,14.83
2019-01-06T03:17:54.330Z,15.43
2019-01-06T03:20:22.409Z,13.90
2019-01-06T03:23:07.221Z,13.07
2019-01-06T03:25:40.845Z,13.13
2019-01-06T03:28:08.936Z,15.07
2019-01-06T03:30:49.058Z,14.27
2019-01-06T03:33:29.450Z,15.33
2019-01-06T03:36:14.271Z,14.90
2019-01-06T03:38:42.369Z,15.40
2019-01-06T03:41:19.193Z,15.23
2019-01-06T03:43:47.285Z,15.83
2019-01-06T03:46:24.076Z,15.47
2019-01-06T03:48:57.769Z,17.70
2019-01-06T03:51:34.442Z,15.90
2019-01-06T03:54:05.552Z,15.60
2019-01-06T03:56:50.050Z,19.83
2019-01-06T03:59:20.706Z,20.53
2019-01-06T04:01:51.288Z,19.50
2019-01-06T04:04:28.687Z,19.23
2019-01-06T04:07:16.145Z,18.33
2019-01-06T04:10:00.796Z,15.43
2019-01-06T04:12:28.836Z,13.50
2019-01-06T04:14:59.687Z,14.47
2019-01-06T04:17:35.407Z,14.20
2019-01-06T04:20:09.165Z,13.07
2019-01-06T04:22:53.934Z,12.60
2019-01-06T04:25:38.387Z,14.70
2019-01-06T04:28:22.911Z,14.37
2019-01-06T04:30:59.765Z,12.40
2019-01-06T04:33:27.864Z,11.20
2019-01-06T04:35:55.931Z,11.30
2019-01-06T04:38:35.846Z,10.83
2019-01-06T04:41:20.847Z,12.23
2019-01-06T04:44:05.260Z,12.33
2019-01-06T04:46:49.732Z,12.73
2019-01-06T04:49:30.612Z,11.63
2019-01-06T04:51:58.681Z,13.90
2019-01-06T04:54:29.504Z,11.53
2019-01-06T04:57:14.073Z,13.50
2019-01-06T04:59:42.128Z,13.97
2019-01-06T05:02:19.013Z,13.87
2019-01-06T05:04:50.116Z,13.30
2019-01-06T05:07:33.066Z,15.60
2019-01-06T05:10:06.669Z,15.33
2019-01-06T05:12:40.476Z,19.27
2019-01-06T05:15:11.389Z,21.73
2019-01-06T05:17:45.310Z,23.47
2019-01-06T05:20:29.711Z,15.87
2019-01-06T05:23:00.649Z,19.13
2019-01-06T05:25:34.640Z,13.13
2019-01-06T05:28:17.851Z,11.37
2019-01-06T05:30:57.961Z,14.07
2019-01-06T05:33:42.818Z,14.07
2019-01-06T05:36:10.869Z,17.43
2019-01-06T05:38:55.264Z,20.53
2019-01-06T05:41:29.016Z,18.53
2019-01-06T05:44:05.941Z,18.03
2019-01-06T05:46:34.000Z,22.47
2019-01-06T05:49:04.861Z,21.90
2019-01-06T05:51:48.064Z,19.37
2019-01-06T05:54:16.125Z,17.07
2019-01-06T05:57:00.688Z,14.27
2019-01-06T05:59:34.673Z,13.97
2019-01-06T06:02:08.553Z,20.97
2019-01-06T06:04:39.424Z,19.87
2019-01-06T06:07:22.604Z,22.33
2019-01-06T06:09:53.386Z,15.97
2019-01-06T06:12:21.453Z,14.23
2019-01-06T06:14:52.493Z,14.30
2019-01-06T06:20:22.554Z,19.23
2019-01-06T06:22:50.613Z,23.77
2019-01-06T06:25:35.077Z,18.50
2019-01-06T06:28:03.149Z,22.97
2019-01-06T06:30:32.595Z,21.00
2019-01-06T06:33:17.625Z,24.47
2019-01-06T06:35:48.762Z,29.47
2019-01-06T06:38:25.524Z,37.17
2019-01-06T06:41:05.240Z,31.70
2019-01-06T06:43:45.091Z,36.33
2019-01-06T06:46:18.699Z,40.67
2019-01-06T06:48:55.355Z,46.43
2019-01-06T06:51:25.988Z,39.40
2019-01-06T06:54:08.906Z,48.10
2019-01-06T06:56:36.965Z,47.57
2019-01-06T06:59:05.015Z,50.07
2019-01-06T07:01:42.096Z,60.53
2019-01-06T07:04:19.086Z,59.00
2019-01-06T07:06:55.924Z,46.43
2019-01-06T07:09:40.518Z,56.60
2019-01-06T07:12:26.522Z,51.83
2019-01-06T07:15:00.542Z,61.30
2019-01-06T07:18:05.021Z,60.13
2019-01-06T07:20:51.470Z,76.40
2019-01-06T07:23:25.230Z,52.23
2019-01-06T07:26:10.310Z,37.63
2019-01-06T07:28:38.411Z,33.87
2019-01-06T07:31:24.916Z,27.60
2019-01-06T07:33:53.036Z,24.57
2019-01-06T07:36:26.682Z,22.97
2019-01-06T07:39:00.552Z,20.90
2019-01-06T07:41:46.499Z,19.53
2019-01-06T07:47:07.734Z,22.50
2019-01-06T07:49:35.839Z,20.93
2019-01-06T07:52:09.535Z,19.93
2019-01-06T07:54:43.411Z,21.17
2019-01-06T07:57:11.468Z,22.70
2019-01-06T07:59:55.855Z,21.67
2019-01-06T08:02:23.916Z,22.70
2019-01-06T08:05:09.871Z,23.57
2019-01-06T08:07:40.472Z,23.03
2019-01-06T08:10:15.104Z,26.53
2019-01-06T08:12:59.456Z,28.43
2019-01-06T08:15:39.323Z,34.13
2019-01-06T08:18:12.919Z,78.77
2019-01-06T08:20:52.826Z,53.57
2019-01-06T08:23:37.146Z,55.37
2019-01-06T08:26:11.308Z,53.47
2019-01-06T08:28:42.132Z,49.87
2019-01-06T08:31:16.063Z,47.83
2019-01-06T08:33:49.924Z,50.93
2019-01-06T08:36:34.368Z,47.63
2019-01-06T08:39:02.450Z,44.53
2019-01-06T08:41:39.351Z,51.27
2019-01-06T08:44:09.938Z,58.33
2019-01-06T08:46:40.700Z,50.47
2019-01-06T08:49:17.465Z,77.67
2019-01-06T08:51:45.558Z,76.40
2019-01-06T08:54:22.215Z,59.50
2019-01-06T08:56:53.085Z,70.57
2019-01-06T08:59:37.871Z,76.00
2019-01-06T09:02:22.369Z,76.17
2019-01-06T09:04:59.248Z,70.67
2019-01-06T09:07:43.848Z,66.60
2019-01-06T09:10:14.403Z,42.77
2019-01-06T09:12:48.026Z,51.07
2019-01-06T09:15:18.824Z,47.17
2019-01-06T09:17:55.988Z,51.17
2019-01-06T09:20:24.062Z,47.53
2019-01-06T09:25:43.903Z,38.23
2019-01-06T09:28:17.578Z,23.17
2019-01-06T09:30:57.430Z,27.07
2019-01-06T09:33:28.283Z,27.17
2019-01-06T09:35:59.858Z,25.17
2019-01-06T09:38:36.611Z,37.57
2019-01-06T09:41:07.210Z,35.63
2019-01-06T09:43:35.273Z,37.83
2019-01-06T09:46:03.458Z,35.23
2019-01-06T09:48:37.435Z,20.47
2019-01-06T09:51:11.091Z,19.53
2019-01-06T09:53:44.937Z,21.13
2019-01-06T09:56:18.594Z,25.50
2019-01-06T09:58:46.653Z,13.83
2019-01-06T10:01:23.559Z,18.73
2019-01-06T10:04:03.432Z,18.60
2019-01-06T10:06:34.757Z,19.57
2019-01-06T10:12:16.096Z,11.67
2019-01-06T10:14:52.732Z,18.77
2019-01-06T10:17:23.631Z,16.33
2019-01-06T10:19:51.697Z,33.83
2019-01-06T10:22:36.066Z,44.73
2019-01-06T10:25:12.884Z,55.20
2019-01-06T10:27:41.010Z,18.43
2019-01-06T10:30:24.402Z,23.80
2019-01-06T10:33:09.162Z,38.40
2019-01-06T10:35:53.603Z,27.17
2019-01-06T10:38:36.514Z,28.77
2019-01-06T10:41:21.081Z,24.33
2019-01-06T10:43:55.429Z,28.23
2019-01-06T10:46:29.515Z,26.67
2019-01-06T10:49:09.517Z,19.00
2019-01-06T10:51:49.598Z,28.13
2019-01-06T10:54:34.045Z,18.03
2019-01-06T10:57:13.408Z,18.90
2019-01-06T10:59:44.487Z,13.23
2019-01-06T11:02:18.499Z,23.70
2019-01-06T11:04:58.293Z,27.67
2019-01-06T11:07:29.185Z,26.70
2019-01-06T11:10:02.857Z,32.17
2019-01-06T11:12:36.463Z,25.60
2019-01-06T11:15:23.682Z,18.17
2019-01-06T11:17:56.836Z,19.73
2019-01-06T11:20:35.363Z,21.80
2019-01-06T11:23:18.467Z,23.90
2019-01-06T11:25:52.092Z,17.63
2019-01-06T11:28:20.150Z,25.07
2019-01-06T11:31:04.586Z,27.70
2019-01-06T11:33:32.653Z,26.77
2019-01-06T11:36:03.296Z,27.67
2019-01-06T11:38:48.004Z,22.07
2019-01-06T11:41:16.079Z,25.70
2019-01-06T11:43:46.933Z,21.57
2019-01-06T11:46:15.032Z,21.30
2019-01-06T11:49:01.451Z,13.50
2019-01-06T11:51:32.285Z,22.60
2019-01-06T11:54:00.353Z,24.60
2019-01-06T11:56:40.434Z,24.13
2019-01-06T11:59:23.331Z,24.30
2019-01-06T12:02:03.215Z,23.07
2019-01-06T12:04:40.118Z,25.13
2019-01-06T12:07:10.933Z,23.60
2019-01-06T12:09:44.660Z,26.17
2019-01-06T12:12:18.282Z,16.57
2019-01-06T12:14:46.343Z,23.33
2019-01-06T12:17:14.403Z,17.70
2019-01-06T12:19:48.304Z,15.17
2019-01-06T12:22:21.933Z,20.50
2019-01-06T12:24:59.136Z,23.77
2019-01-06T12:27:32.842Z,25.43
2019-01-06T12:30:12.982Z,19.87
2019-01-06T12:32:43.616Z,26.93
2019-01-06T12:35:17.450Z,24.07
2019-01-06T12:37:45.722Z,16.43
2019-01-06T12:40:25.459Z,26.43
2019-01-06T12:42:59.086Z,23.00
2019-01-06T12:45:32.885Z,13.20
2019-01-06T12:48:19.192Z,30.43
2019-01-06T12:50:47.304Z,19.83
2019-01-06T12:53:27.276Z,22.90
2019-01-06T12:55:55.711Z,22.83
2019-01-06T12:58:32.584Z,18.80
2019-01-06T13:01:17.268Z,20.20
2019-01-06T13:04:00.073Z,22.10
2019-01-06T13:06:31.128Z,18.37
2019-01-06T13:09:17.133Z,28.17
2019-01-06T13:11:48.249Z,26.23
2019-01-06T13:14:19.079Z,25.93
2019-01-06T13:16:47.141Z,31.13
2019-01-06T13:19:24.318Z,24.13
2019-01-06T13:22:10.334Z,9.53
2019-01-06T13:24:38.430Z,14.07
2019-01-06T13:27:23.101Z,23.73
2019-01-06T13:30:03.007Z,21.13
2019-01-06T13:32:47.534Z,17.33
2019-01-06T13:35:18.132Z,23.70
2019-01-06T13:37:46.196Z,18.20
2019-01-06T13:40:16.753Z,18.93
2019-01-06T13:42:56.483Z,26.53
2019-01-06T13:45:40.910Z,14.60
2019-01-06T13:48:20.825Z,30.20
2019-01-06T13:51:05.463Z,14.00
2019-01-06T13:53:45.365Z,33.23
2019-01-06T13:56:13.426Z,33.27
2019-01-06T13:58:50.365Z,39.53
2019-01-06T14:01:36.253Z,26.10
2019-01-06T14:04:04.346Z,42.10
2019-01-06T14:06:32.417Z,41.60
2019-01-06T14:09:00.485Z,31.17
2019-01-06T14:11:44.887Z,33.60
2019-01-06T14:14:21.707Z,28.63
2019-01-06T14:16:52.698Z,20.50
2019-01-06T14:19:20.771Z,19.13
2019-01-06T14:22:05.348Z,32.10
2019-01-06T14:24:33.408Z,34.80
2019-01-06T14:27:17.813Z,35.07
2019-01-06T14:29:48.393Z,32.33
2019-01-06T14:32:33.340Z,32.47
2019-01-06T14:35:10.781Z,24.00
2019-01-06T14:37:50.862Z,25.07
2019-01-06T14:40:27.725Z,31.27
2019-01-06T14:42:55.821Z,22.60
2019-01-06T14:45:40.172Z,16.37
2019-01-06T14:48:26.059Z,34.47
2019-01-06T14:51:12.188Z,47.63
2019-01-06T14:53:52.122Z,56.47
2019-01-06T14:56:20.194Z,46.67
2019-01-06T14:59:06.457Z,43.27
2019-01-06T15:01:40.317Z,34.50
2019-01-06T15:04:08.381Z,24.93
2019-01-06T15:06:45.306Z,54.80
2019-01-06T15:09:30.199Z,59.33
2019-01-06T15:12:14.561Z,42.20
2019-01-06T15:14:51.220Z,47.43
2019-01-06T15:17:24.860Z,55.00
2019-01-06T15:19:52.924Z,37.67
2019-01-06T15:22:39.126Z,44.30
2019-01-06T15:25:15.775Z,46.57
2019-01-06T15:27:52.760Z,63.83
2019-01-06T15:30:32.907Z,72.03
2019-01-06T15:33:06.629Z,129.40
2019-01-06T15:35:37.216Z,59.23
2019-01-06T15:38:08.685Z,50.27
2019-01-06T15:40:36.746Z,51.47
2019-01-06T15:43:04.809Z,63.00
2019-01-06T15:45:38.659Z,74.93
2019-01-06T15:48:23.335Z,55.30
2019-01-06T15:50:51.429Z,32.33
2019-01-06T15:53:19.482Z,17.33
2019-01-06T15:56:03.845Z,36.70
2019-01-06T15:58:48.242Z,21.03
2019-01-06T16:01:24.906Z,49.10
2019-01-06T16:04:09.578Z,42.43
2019-01-06T16:06:53.940Z,133.23
2019-01-06T16:09:25.054Z,56.70
2019-01-06T16:12:11.143Z,59.07
2019-01-06T16:14:51.213Z,47.10
2019-01-06T16:17:35.610Z,40.77
2019-01-06T16:20:03.682Z,35.60
2019-01-06T16:22:48.104Z,46.13
2019-01-06T16:25:27.941Z,47.37
2019-01-06T16:27:56.219Z,37.77
2019-01-06T16:30:24.343Z,51.10
2019-01-06T16:32:52.404Z,43.60
2019-01-06T16:35:26.519Z,28.10
2019-01-06T16:37:57.197Z,40.53
2019-01-06T16:40:41.910Z,31.13
2019-01-06T16:43:18.781Z,17.97
2019-01-06T16:45:52.546Z,20.83
2019-01-06T16:48:37.133Z,15.27
2019-01-06T16:51:07.758Z,25.83
2019-01-06T16:53:44.455Z,22.27
2019-01-06T16:56:29.244Z,27.60
2019-01-06T16:59:12.134Z,31.67
2019-01-06T17:01:40.228Z,26.23
2019-01-06T17:04:08.290Z,22.47
2019-01-06T17:06:36.418Z,23.10
2019-01-06T17:09:23.084Z,22.20
2019-01-06T17:11:53.654Z,38.03
2019-01-06T17:14:21.723Z,36.00
2019-01-06T17:16:55.623Z,37.97
2019-01-06T17:19:35.302Z,36.63
2019-01-06T17:22:19.749Z,28.77
2019-01-06T17:25:04.853Z,25.13
2019-01-06T17:27:38.490Z,26.30
2019-01-06T17:30:08.670Z,29.43
2019-01-06T17:32:45.803Z,32.07
2019-01-06T17:35:19.896Z,37.63
2019-01-06T17:37:47.998Z,39.93
2019-01-06T17:40:21.637Z,35.20
2019-01-06T17:42:55.703Z,36.83
2019-01-06T17:45:23.761Z,37.20
2019-01-06T17:48:00.902Z,44.97
2019-01-06T17:50:38.230Z,32.53
2019-01-06T17:53:06.308Z,35.37
2019-01-06T17:55:34.365Z,32.67
2019-01-06T17:58:08.238Z,38.25
2019-01-06T18:00:39.455Z,33.60
2019-01-06T18:03:25.780Z,30.37
2019-01-06T18:05:59.568Z,50.80
2019-01-06T18:08:36.692Z,30.50
2019-01-06T18:11:22.987Z,36.80
2019-01-06T18:14:02.881Z,32.03
2019-01-06T18:16:47.260Z,28.67
2019-01-06T18:19:24.058Z,33.97
2019-01-06T18:21:54.734Z,39.20
2019-01-06T18:24:22.783Z,49.33
2019-01-06T18:27:07.214Z,64.20
2019-01-06T18:29:51.596Z,47.70
2019-01-06T18:32:25.291Z,46.27
2019-01-06T18:34:55.932Z,49.93
2019-01-06T18:37:40.580Z,49.00
2019-01-06T18:40:18.111Z,41.23
2019-01-06T18:42:46.203Z,144.07
2019-01-06T18:45:14.267Z,40.73
2019-01-06T18:47:48.159Z,60.63
2019-01-06T18:50:24.793Z,56.00
2019-01-06T18:52:52.892Z,91.97
2019-01-06T18:55:38.771Z,45.33
2019-01-06T18:58:12.470Z,43.20
2019-01-06T19:00:49.565Z,38.67
2019-01-06T19:03:17.662Z,39.87
2019-01-06T19:05:54.770Z,37.30
2019-01-06T19:08:39.471Z,45.50
2019-01-06T19:11:25.429Z,85.93
2019-01-06T19:13:53.533Z,84.97
2019-01-06T19:16:24.105Z,51.50
2019-01-06T19:19:10.465Z,50.13
2019-01-06T19:21:47.650Z,49.00
2019-01-06T19:24:25.050Z,43.17
2019-01-06T19:26:58.946Z,49.43
2019-01-06T19:29:32.581Z,35.23
2019-01-06T19:32:00.809Z,40.63
2019-01-06T19:34:31.860Z,27.47
2019-01-06T19:37:05.511Z,34.07
2019-01-06T19:39:42.379Z,48.80
2019-01-06T19:42:10.619Z,57.87
2019-01-06T19:44:38.682Z,58.03
2019-01-06T19:47:23.141Z,73.27
2019-01-06T19:49:51.216Z,78.50
2019-01-06T19:52:21.821Z,85.07
2019-01-06T19:54:52.807Z,76.27
2019-01-06T19:57:26.543Z,96.37
2019-01-06T19:59:57.169Z,101.90
2019-01-06T20:02:27.995Z,80.93
2019-01-06T20:04:56.057Z,94.00
2019-01-06T20:07:24.152Z,82.67
2019-01-06T20:10:01.042Z,52.43
2019-01-06T20:12:44.142Z,56.33
2019-01-06T20:15:18.066Z,55.50
2019-01-06T20:17:48.664Z,82.00
2019-01-06T20:20:32.174Z,65.73
2019-01-06T20:23:18.367Z,45.37
2019-01-06T20:25:55.572Z,41.73
2019-01-06T20:28:23.664Z,46.07
2019-01-06T20:30:54.502Z,49.30
2019-01-06T20:33:25.146Z,54.10
2019-01-06T20:35:59.171Z,59.03
2019-01-06T20:38:30.003Z,57.57
2019-01-06T20:41:00.918Z,36.27
2019-01-06T20:43:31.901Z,45.17
2019-01-06T20:46:05.524Z,40.10
2019-01-06T20:48:45.889Z,44.77
2019-01-06T20:51:32.031Z,48.70
2019-01-06T20:54:02.642Z,132.85
2019-01-06T20:56:30.700Z,80.53
2019-01-06T20:58:58.831Z,150.47
2019-01-06T21:01:43.591Z,123.97
2019-01-06T21:04:14.215Z,36.10
2019-01-06T21:06:58.992Z,30.23
2019-01-06T21:09:27.101Z,32.90
2019-01-06T21:12:03.875Z,30.63
2019-01-06T21:14:34.488Z,28.70
2019-01-06T21:17:19.151Z,21.77
2019-01-06T21:19:47.533Z,23.67
2019-01-06T21:22:24.602Z,25.63
2019-01-06T21:24:55.647Z,28.33
2019-01-06T21:27:23.711Z,19.70
2019-01-06T21:30:09.903Z,23.87
2019-01-06T21:32:54.518Z,18.70
2019-01-06T21:35:37.364Z,17.27
2019-01-06T21:38:14.483Z,18.50
2019-01-06T21:40:42.831Z,18.47
2019-01-06T21:43:19.724Z,19.30
2019-01-06T21:45:59.696Z,20.63
2019-01-06T21:48:42.792Z,24.93
2019-01-06T21:51:10.899Z,29.87
2019-01-06T21:53:47.785Z,35.70
2019-01-06T21:56:15.868Z,38.63
2019-01-06T21:58:46.602Z,30.07
2019-01-06T22:01:14.665Z,30.70
2019-01-06T22:03:45.404Z,29.83
2019-01-06T22:06:16.262Z,36.90
2019-01-06T22:08:44.324Z,37.50
2019-01-06T22:11:12.414Z,41.30
2019-01-06T22:13:40.493Z,39.50
2019-01-06T22:16:17.384Z,36.47
2019-01-06T22:18:47.950Z,33.17
2019-01-06T22:21:18.562Z,34.97
2019-01-06T22:24:03.245Z,33.87
2019-01-06T22:26:40.054Z,36.20
2019-01-06T22:29:10.900Z,45.37
2019-01-06T22:31:41.724Z,39.13
2019-01-06T22:34:21.604Z,32.30
2019-01-06T22:36:49.666Z,28.33
2019-01-06T22:39:23.632Z,30.90
2019-01-06T22:41:54.224Z,27.27
2019-01-06T22:44:38.691Z,24.43
2019-01-06T22:47:12.417Z,25.67
2019-01-06T22:49:49.186Z,22.90
2019-01-06T22:52:17.217Z,21.63
2019-01-06T22:54:45.275Z,23.77
2019-01-06T22:57:13.366Z,25.03
2019-01-06T22:59:41.422Z,19.40
2019-01-06T23:02:19.130Z,26.80
2019-01-06T23:04:56.367Z,26.17
2019-01-06T23:07:37.701Z,19.63
2019-01-06T23:10:07.411Z,25.23
2019-01-06T23:12:35.488Z,19.73
2019-01-06T23:15:15.369Z,11.70
2019-01-06T23:17:52.047Z,13.30
2019-01-06T23:20:36.450Z,14.50
2019-01-06T23:23:16.335Z,8.93
2019-01-06T23:26:02.208Z,10.23
2019-01-06T23:28:32.890Z,5.60
2019-01-06T23:31:00.944Z,5.30
2019-01-06T23:33:31.579Z,5.17
2019-01-06T23:36:05.183Z,5.80
2019-01-06T23:38:36.036Z,5.67
2019-01-06T23:41:20.607Z,5.60
2019-01-06T23:43:54.233Z,4.17
2019-01-06T23:46:39.110Z,5.87
2019-01-06T23:49:25.091Z,6.17
2019-01-06T23:51:58.729Z,5.97
2019-01-06T23:54:42.199Z,8.60
2019-01-06T23:57:16.225Z,6.47
2019-01-06T23:59:47.069Z,7.87
